Time;durP1;ratioP1;P1;durP2;ratioP2;P2;SDS_P1;SDS_P2;PMS_P1;PMS_P2;Temp;Humidity;BMP_temperature;BMP_pressure;BME280_temperature;BME280_humidity;BME280_pressure;Samples;Min_cycle;Max_cycle;Signal;HPM_P1;HPM_P2
2021/04/08 00:00:20;;;;;;;78.75;22.38;;;1.30;99.90;;;;;;8324992;28;20029;-70
2021/04/08 00:04:21;;;;;;;78.82;22.17;;;1.30;99.90;;;;;;8326519;28;20105;-68
2021/04/08 00:08:21;;;;;;;79.47;22.33;;;1.30;99.90;;;;;;8326584;28;20025;-69
2021/04/08 00:12:22;;;;;;;79.35;22.40;;;1.30;99.90;;;;;;8325073;28;20562;-68
2021/04/08 00:16:23;;;;;;;79.38;22.38;;;1.30;99.90;;;;;;8324543;28;20034;-69
2021/04/08 00:20:23;;;;;;;80.40;22.65;;;1.30;99.90;;;;;;8323690;28;20037;-69
2021/04/08 00:24:24;;;;;;;79.57;22.52;;;1.30;99.90;;;;;;8325486;28;20036;-68
2021/04/08 00:28:25;;;;;;;79.55;22.48;;;1.30;99.90;;;;;;8326519;28;20075;-68
2021/04/08 00:32:25;;;;;;;79.70;22.40;;;1.30;99.90;;;;;;8326032;28;20026;-69
2021/04/08 00:36:26;;;;;;;80.22;22.35;;;1.40;99.90;;;;;;8326187;28;20042;-68
2021/04/08 00:40:27;;;;;;;80.32;22.27;;;1.40;99.90;;;;;;8325633;28;20052;-68
2021/04/08 00:44:27;;;;;;;80.55;22.38;;;1.40;99.90;;;;;;8325846;28;20491;-68
2021/04/08 00:48:28;;;;;;;79.88;22.08;;;1.30;99.90;;;;;;8328536;28;20711;-70
2021/04/08 00:52:29;;;;;;;81.38;22.85;;;1.40;99.90;;;;;;8331063;28;20038;-69
2021/04/08 00:56:29;;;;;;;81.40;22.02;;;1.40;99.90;;;;;;8331986;28;20037;-70
2021/04/08 01:00:31;;;;;;;80.90;22.27;;;1.30;99.90;;;;;;8330725;28;20052;-69
2021/04/08 01:04:32;;;;;;;82.53;22.75;;;1.40;99.90;;;;;;8329163;28;20040;-69
2021/04/08 01:08:35;;;;;;;82.80;22.55;;;1.40;99.90;;;;;;8330287;28;20065;-69
2021/04/08 01:12:36;;;;;;;82.72;22.42;;;1.40;99.90;;;;;;8311863;28;20018;-69
2021/04/08 01:17:00;;;;;;;84.18;22.60;;;1.40;99.90;;;;;;8295239;28;20041;-68
2021/04/08 01:21:12;;;;;;;81.75;22.30;;;1.40;99.90;;;;;;8297322;28;20076;-68
2021/04/08 01:25:35;;;;;;;82.40;22.48;;;1.30;99.90;;;;;;8302952;28;20032;-69
2021/04/08 01:30:05;;;;;;;82.30;22.45;;;1.40;99.90;;;;;;8329527;28;20083;-69
2021/04/08 01:34:12;;;;;;;82.55;22.80;;;1.40;99.90;;;;;;8328859;28;20068;-69
2021/04/08 01:38:20;;;;;;;81.57;22.50;;;1.40;99.90;;;;;;8327860;28;20037;-69
2021/04/08 01:42:23;;;;;;;81.75;22.65;;;1.40;99.90;;;;;;8328970;28;20144;-69
2021/04/08 01:46:26;;;;;;;80.80;22.67;;;1.50;99.90;;;;;;8324804;28;20056;-69
2021/04/08 01:50:28;;;;;;;81.32;22.42;;;1.40;99.90;;;;;;8329019;28;20134;-69
2021/04/08 01:54:34;;;;;;;81.88;23.02;;;1.50;99.90;;;;;;8302360;28;20025;-69
2021/04/08 01:58:35;;;;;;;80.55;22.20;;;1.50;99.90;;;;;;8308301;28;20526;-68
2021/04/08 02:02:38;;;;;;;81.40;22.38;;;1.50;99.90;;;;;;8295277;28;20026;-68
2021/04/08 02:06:42;;;;;;;80.50;22.50;;;1.50;99.90;;;;;;8294762;28;20034;-68
2021/04/08 02:10:44;;;;;;;81.60;22.85;;;1.40;99.90;;;;;;8296766;28;20069;-68
2021/04/08 02:14:46;;;;;;;82.00;22.63;;;1.40;99.90;;;;;;8295313;28;20125;-71
2021/04/08 02:18:50;;;;;;;81.88;22.40;;;1.50;99.90;;;;;;8296693;28;20033;-68
2021/04/08 02:22:53;;;;;;;83.07;22.65;;;1.50;99.90;;;;;;8296280;28;20455;-68
2021/04/08 02:26:54;;;;;;;82.55;22.52;;;1.50;99.90;;;;;;8296424;28;20033;-69
2021/04/08 02:30:57;;;;;;;82.60;22.48;;;1.50;99.90;;;;;;8313225;28;20037;-69
2021/04/08 02:34:57;;;;;;;82.93;22.63;;;1.50;99.90;;;;;;8327323;28;20403;-69
2021/04/08 02:38:58;;;;;;;81.63;22.75;;;1.50;99.90;;;;;;8325394;28;20072;-68
2021/04/08 02:42:59;;;;;;;82.07;22.50;;;1.50;99.90;;;;;;8293917;28;20014;-69
2021/04/08 02:46:59;;;;;;;83.55;22.88;;;1.60;99.90;;;;;;8294722;28;20064;-69
2021/04/08 02:51:09;;;;;;;82.72;22.50;;;1.60;99.90;;;;;;8304681;28;20045;-69
2021/04/08 02:55:23;;;;;;;82.53;22.73;;;1.60;99.90;;;;;;8328126;28;20594;-70
2021/04/08 02:59:39;;;;;;;81.43;22.55;;;1.50;99.90;;;;;;8326818;28;20052;-69
2021/04/08 03:03:50;;;;;;;80.53;22.90;;;1.30;99.90;;;;;;8325997;28;20060;-68
2021/04/08 03:07:53;;;;;;;81.05;22.52;;;1.10;99.90;;;;;;8307659;28;20037;-68
2021/04/08 03:11:54;;;;;;;81.85;22.15;;;1.10;99.90;;;;;;8294728;28;20145;-68
2021/04/08 03:15:56;;;;;;;80.32;22.15;;;1.20;99.90;;;;;;8293986;28;20028;-68
2021/04/08 03:19:59;;;;;;;82.00;22.75;;;1.10;99.90;;;;;;8292745;28;20053;-68
2021/04/08 03:24:01;;;;;;;82.93;22.88;;;1.00;99.90;;;;;;8292987;28;20057;-68
2021/04/08 03:28:02;;;;;;;82.80;22.67;;;1.10;99.90;;;;;;8318119;28;20411;-68
2021/04/08 03:32:04;;;;;;;83.45;22.58;;;1.10;99.90;;;;;;8327051;28;20442;-68
2021/04/08 03:36:05;;;;;;;84.45;22.77;;;1.00;99.90;;;;;;8325298;28;20515;-68
2021/04/08 03:40:07;;;;;;;83.95;22.52;;;1.10;99.90;;;;;;8306858;28;20072;-68
2021/04/08 03:44:11;;;;;;;84.75;23.13;;;1.10;99.90;;;;;;8309871;28;20095;-68
2021/04/08 03:48:13;;;;;;;84.32;22.92;;;1.00;99.90;;;;;;8309602;28;20060;-68
2021/04/08 03:52:14;;;;;;;84.53;23.02;;;0.90;99.90;;;;;;8310625;28;20022;-69
2021/04/08 03:56:16;;;;;;;84.70;22.77;;;1.20;99.90;;;;;;8325583;28;20029;-68
2021/04/08 04:00:17;;;;;;;84.70;22.73;;;1.40;99.90;;;;;;8326764;28;20116;-68
2021/04/08 04:04:18;;;;;;;85.57;23.80;;;1.20;99.90;;;;;;8320441;28;20659;-69
2021/04/08 04:08:19;;;;;;;84.63;22.60;;;1.20;99.90;;;;;;8315585;28;20064;-68
2021/04/08 04:12:20;;;;;;;83.63;22.85;;;1.10;99.90;;;;;;8303887;28;20029;-69
2021/04/08 04:16:21;;;;;;;80.80;22.30;;;1.40;99.90;;;;;;8293264;28;20065;-68
2021/04/08 04:20:22;;;;;;;82.05;22.80;;;1.50;99.90;;;;;;8293669;28;20396;-69
2021/04/08 04:24:22;;;;;;;82.55;22.63;;;1.40;99.90;;;;;;8296881;28;20134;-69
2021/04/08 04:28:23;;;;;;;82.13;22.90;;;1.30;99.90;;;;;;8299081;28;20034;-69
2021/04/08 04:32:23;;;;;;;83.13;22.80;;;1.40;99.90;;;;;;8310439;28;20037;-69
2021/04/08 04:36:24;;;;;;;84.07;22.70;;;2.20;99.90;;;;;;8331332;28;20041;-69
2021/04/08 04:40:26;;;;;;;83.15;22.77;;;1.70;99.90;;;;;;8302275;28;20022;-69
2021/04/08 04:44:26;;;;;;;83.18;22.50;;;1.50;99.90;;;;;;8299356;28;20141;-69
2021/04/08 04:48:29;;;;;;;82.78;22.60;;;1.40;99.90;;;;;;8299351;28;20042;-69
2021/04/08 04:52:29;;;;;;;84.13;23.10;;;1.40;99.90;;;;;;8300471;28;20053;-68
2021/04/08 04:56:30;;;;;;;84.10;22.92;;;1.40;99.90;;;;;;8325085;28;20021;-69
2021/04/08 05:00:30;;;;;;;84.63;22.85;;;1.40;99.90;;;;;;8312053;28;20104;-69
2021/04/08 05:04:31;;;;;;;84.10;22.75;;;1.40;99.90;;;;;;8315700;28;20113;-69
2021/04/08 05:08:32;;;;;;;84.40;22.83;;;1.30;99.90;;;;;;8314001;28;20446;-69
2021/04/08 05:12:32;;;;;;;84.88;22.92;;;1.30;99.90;;;;;;8311975;28;20735;-69
2021/04/08 05:16:33;;;;;;;84.93;22.98;;;1.20;99.90;;;;;;8308096;28;20030;-65
2021/04/08 05:20:33;;;;;;;84.60;22.95;;;1.30;99.90;;;;;;8297250;28;20026;-66
2021/04/08 05:24:34;;;;;;;84.95;22.88;;;1.50;99.90;;;;;;8297911;28;20488;-66
2021/04/08 05:28:35;;;;;;;86.38;23.08;;;1.50;99.90;;;;;;8308558;28;20064;-66
2021/04/08 05:32:36;;;;;;;86.85;23.13;;;1.50;99.90;;;;;;8312795;28;20086;-65
2021/04/08 05:36:37;;;;;;;86.60;23.10;;;1.60;99.90;;;;;;8314286;28;20033;-66
2021/04/08 05:40:37;;;;;;;86.93;23.02;;;1.90;99.90;;;;;;8313737;28;20105;-66
2021/04/08 05:44:38;;;;;;;86.50;22.73;;;1.90;99.90;;;;;;8311896;28;20025;-66
2021/04/08 05:48:39;;;;;;;86.35;23.00;;;2.00;99.90;;;;;;8315821;28;20036;-68
2021/04/08 05:52:40;;;;;;;86.50;22.83;;;2.00;99.90;;;;;;8329530;28;20021;-66
2021/04/08 05:56:40;;;;;;;85.40;22.65;;;2.00;99.90;;;;;;8312839;28;20069;-65
2021/04/08 06:00:41;;;;;;;85.85;22.90;;;2.00;99.90;;;;;;8311043;28;20093;-66
2021/04/08 06:04:42;;;;;;;85.90;23.17;;;2.10;99.90;;;;;;8314567;28;20025;-66
2021/04/08 06:08:43;;;;;;;85.32;22.90;;;2.30;99.90;;;;;;8312308;28;20018;-67
2021/04/08 06:12:44;;;;;;;84.07;22.58;;;2.50;99.90;;;;;;8312079;28;20049;-67
2021/04/08 06:16:44;;;;;;;83.95;22.60;;;2.60;99.90;;;;;;8307750;28;20021;-66
2021/04/08 06:20:45;;;;;;;84.18;22.65;;;2.80;99.90;;;;;;8312882;28;20030;-67
2021/04/08 06:24:46;;;;;;;84.68;22.88;;;2.80;99.90;;;;;;8312692;28;20029;-66
2021/04/08 06:28:46;;;;;;;83.32;22.58;;;2.80;99.90;;;;;;8312315;28;20041;-66
2021/04/08 06:32:47;;;;;;;83.72;22.63;;;2.70;99.90;;;;;;8317977;28;20033;-67
2021/04/08 06:36:47;;;;;;;83.07;22.60;;;2.80;99.90;;;;;;8294537;28;20034;-67
2021/04/08 06:40:48;;;;;;;81.10;22.50;;;3.00;99.90;;;;;;8295154;28;20497;-67
2021/04/08 06:44:51;;;;;;;82.00;22.50;;;3.00;99.90;;;;;;8301501;28;20083;-66
2021/04/08 06:49:01;;;;;;;81.32;22.73;;;3.00;99.90;;;;;;8298813;28;20413;-66
2021/04/08 06:53:03;;;;;;;;;;;2.80;99.90;;;;;;8310979;28;20443;-66
2021/04/08 06:57:04;;;;;;;80.13;22.33;;;2.90;99.90;;;;;;8310357;28;20003;-67
2021/04/08 07:01:10;;;;;;;78.95;22.48;;;3.30;99.90;;;;;;8306695;28;20620;-66
2021/04/08 07:05:11;;;;;;;76.20;22.13;;;3.70;99.90;;;;;;8310555;28;20044;-66
2021/04/08 07:09:12;;;;;;;76.10;22.00;;;3.60;99.90;;;;;;8310046;28;20384;-67
2021/04/08 07:13:13;;;;;;;76.47;21.77;;;3.40;99.90;;;;;;8310234;28;20038;-67
2021/04/08 07:17:14;;;;;;;77.45;22.40;;;3.30;99.90;;;;;;8310228;28;20029;-66
2021/04/08 07:21:15;;;;;;;77.90;22.38;;;3.30;99.90;;;;;;8308696;28;20017;-66
2021/04/08 07:25:18;;;;;;;78.50;22.17;;;3.30;99.90;;;;;;8310410;28;20080;-66
2021/04/08 07:29:24;;;;;;;77.82;23.23;;;3.60;99.90;;;;;;8307133;28;20033;-66
2021/04/08 07:33:25;;;;;;;75.15;22.02;;;3.70;99.90;;;;;;8310694;28;20032;-66
2021/04/08 07:37:34;;;;;;;74.05;22.60;;;4.10;99.90;;;;;;8310047;28;20108;-66
2021/04/08 07:41:36;;;;;;;73.60;21.75;;;4.10;99.90;;;;;;8310171;28;20025;-67
2021/04/08 07:45:37;;;;;;;72.93;21.67;;;3.80;99.90;;;;;;8310062;28;20108;-67
2021/04/08 07:49:38;;;;;;;73.22;21.65;;;4.00;99.90;;;;;;8308593;28;20038;-67
2021/04/08 07:53:38;;;;;;;69.82;21.38;;;4.20;99.90;;;;;;8306709;28;20104;-67
2021/04/08 07:57:52;;;;;;;69.05;21.30;;;4.60;99.90;;;;;;8308823;28;20121;-67
2021/04/08 08:02:06;;;;;;;68.35;21.08;;;4.60;99.90;;;;;;8311578;28;20018;-66
2021/04/08 08:06:06;;;;;;;66.22;20.83;;;4.70;99.90;;;;;;8328726;28;20111;-66
2021/04/08 08:10:07;;;;;;;64.68;21.58;;;5.00;99.90;;;;;;8310833;28;20033;-66
2021/04/08 08:14:09;;;;;;;62.85;20.38;;;5.40;99.90;;;;;;8316885;28;20045;-66
2021/04/08 08:18:28;;;;;;;63.97;20.65;;;5.40;99.90;;;;;;8315691;28;20014;-66
2021/04/08 08:22:34;;;;;;;63.85;20.75;;;5.20;99.90;;;;;;8317349;28;20037;-66
2021/04/08 08:26:39;;;;;;;64.35;20.80;;;5.10;99.90;;;;;;8314250;28;20429;-65
2021/04/08 08:30:52;;;;;;;63.88;20.73;;;5.30;99.90;;;;;;8314835;28;20087;-67
2021/04/08 08:34:53;;;;;;;64.55;20.90;;;5.30;99.90;;;;;;8318079;28;20030;-66
2021/04/08 08:38:55;;;;;;;64.82;21.17;;;5.00;99.90;;;;;;8316803;28;20060;-66
2021/04/08 08:42:56;;;;;;;64.38;20.88;;;5.30;99.90;;;;;;8314958;28;20057;-67
2021/04/08 08:47:18;;;;;;;64.45;21.02;;;5.30;99.90;;;;;;8309996;28;20042;-67
2021/04/08 08:51:20;;;;;;;64.07;20.98;;;5.30;99.90;;;;;;8319574;28;20079;-67
2021/04/08 08:55:23;;;;;;;62.67;20.65;;;5.60;99.90;;;;;;8318764;28;20025;-67
2021/04/08 08:59:27;;;;;;;61.58;20.90;;;5.90;99.90;;;;;;8313823;28;20096;-68
2021/04/08 09:03:28;;;;;;;62.58;20.65;;;6.10;99.90;;;;;;8313812;28;20038;-66
2021/04/08 09:07:29;;;;;;;64.35;21.10;;;5.60;99.90;;;;;;8315902;28;20022;-67
2021/04/08 09:11:32;;;;;;;64.15;21.05;;;5.30;99.90;;;;;;8311897;28;20084;-68
2021/04/08 09:15:35;;;;;;;64.55;21.35;;;5.50;99.90;;;;;;8307258;28;20041;-67
2021/04/08 09:19:36;;;;;;;63.38;21.58;;;5.70;99.90;;;;;;8299552;28;20136;-67
2021/04/08 09:23:37;;;;;;;62.20;21.23;;;6.30;99.90;;;;;;8305509;28;20049;-66
2021/04/08 09:27:52;;;;;;;62.25;21.33;;;6.20;99.90;;;;;;8294318;28;20125;-66
2021/04/08 09:32:24;;;;;;;61.17;21.10;;;6.20;99.90;;;;;;8310121;28;20064;-66
2021/04/08 09:36:25;;;;;;;62.00;21.00;;;6.40;99.90;;;;;;8318353;28;20573;-66
2021/04/08 09:40:37;;;;;;;60.92;20.40;;;6.30;99.90;;;;;;8320472;28;20033;-68
2021/04/08 09:44:37;;;;;;;60.67;20.75;;;6.50;99.90;;;;;;8316953;28;20025;-67
2021/04/08 09:48:43;;;;;;;61.03;20.83;;;6.80;99.90;;;;;;8312236;28;20036;-68
2021/04/08 09:52:56;;;;;;;61.05;20.85;;;6.10;99.90;;;;;;8308789;28;20034;-66
2021/04/08 09:56:57;;;;;;;62.90;21.67;;;6.20;99.90;;;;;;8309349;28;20038;-67
2021/04/08 10:01:01;;;;;;;62.78;21.20;;;6.10;99.90;;;;;;8310572;28;20029;-67
2021/04/08 10:05:10;;;;;;;63.13;21.40;;;6.40;99.90;;;;;;8308153;28;20033;-67
2021/04/08 10:09:15;;;;;;;59.95;20.45;;;7.20;99.90;;;;;;8312633;28;20029;-68
2021/04/08 10:13:20;;;;;;;58.60;20.42;;;7.90;96.20;;;;;;8308525;28;20108;-67
2021/04/08 10:17:36;;;;;;;59.92;20.85;;;7.60;94.80;;;;;;8312442;28;20117;-66
2021/04/08 10:21:37;;;;;;;60.85;21.00;;;8.00;91.40;;;;;;8294951;28;20030;-67
2021/04/08 10:25:38;;;;;;;61.33;20.92;;;7.70;91.70;;;;;;8296963;28;20026;-67
2021/04/08 10:29:39;;;;;;;60.85;20.83;;;7.50;90.90;;;;;;8328434;28;20044;-66
2021/04/08 10:33:40;;;;;;;61.58;20.98;;;7.10;83.40;;;;;;8311047;28;20121;-66
2021/04/08 10:37:40;;;;;;;62.10;21.23;;;7.10;90.00;;;;;;8295543;28;20036;-66
2021/04/08 10:42:06;;;;;;;61.85;21.02;;;7.10;90.50;;;;;;8295057;28;20025;-67
2021/04/08 10:46:07;;;;;;;62.55;21.20;;;7.10;84.30;;;;;;8295834;28;20026;-67
2021/04/08 10:50:08;;;;;;;62.50;21.40;;;7.10;87.40;;;;;;8294026;28;20128;-67
2021/04/08 10:54:09;;;;;;;62.40;20.98;;;6.80;85.20;;;;;;8295356;28;20030;-68
2021/04/08 10:58:27;;;;;;;63.92;21.42;;;6.80;87.90;;;;;;8317037;28;20045;-67
2021/04/08 11:02:42;;;;;;;62.50;21.02;;;7.90;88.60;;;;;;8323430;28;20049;-67
2021/04/08 11:06:43;;;;;;;61.08;20.92;;;8.00;81.10;;;;;;8310651;28;20385;-67
2021/04/08 11:10:44;;;;;;;59.72;20.77;;;7.70;84.90;;;;;;8316027;28;20037;-67
2021/04/08 11:14:50;;;;;;;61.05;21.17;;;7.20;86.80;;;;;;8313888;28;20049;-68
2021/04/08 11:18:51;;;;;;;60.67;20.60;;;7.10;83.90;;;;;;8308861;28;20018;-66
2021/04/08 11:22:53;;;;;;;62.40;21.00;;;6.90;88.90;;;;;;8309642;28;20053;-67
2021/04/08 11:26:54;;;;;;;62.45;21.25;;;7.10;86.80;;;;;;8312736;28;20381;-66
2021/04/08 11:30:54;;;;;;;62.20;21.27;;;7.00;81.20;;;;;;8311948;28;20412;-66
2021/04/08 11:34:58;;;;;;;62.60;21.08;;;7.20;83.50;;;;;;8309237;28;20033;-66
2021/04/08 11:39:13;;;;;;;63.92;21.25;;;7.50;83.40;;;;;;8305544;28;20030;-66
2021/04/08 11:43:33;;;;;;;66.50;22.10;;;9.00;76.80;;;;;;8309095;28;20013;-65
2021/04/08 11:47:34;;;;;;;65.50;22.10;;;8.20;73.50;;;;;;8320499;28;20068;-66
2021/04/08 11:51:34;;;;;;;65.72;21.65;;;7.70;78.70;;;;;;8314236;28;20192;-66
2021/04/08 11:55:51;;;;;;;66.70;21.77;;;8.50;76.80;;;;;;8314882;28;20063;-65
2021/04/08 12:00:12;;;;;;;68.55;21.90;;;8.60;73.50;;;;;;8311038;28;20167;-67
2021/04/08 12:04:15;;;;;;;;;;;10.30;70.30;;;;;;8316988;28;20589;-65
2021/04/08 12:09:05;;;;;;;74.78;22.92;;;13.10;58.70;;;;;;8311018;28;20326;-67
2021/04/08 12:13:10;;;;;;;86.43;24.15;;;13.10;63.40;;;;;;8291074;28;20033;-67
2021/04/08 12:17:12;;;;;;;66.25;21.45;;;11.30;58.70;;;;;;8316676;28;20065;-67
2021/04/08 12:21:13;;;;;;;58.42;20.40;;;9.90;64.40;;;;;;8310150;28;20050;-66
2021/04/08 12:25:19;;;;;;;61.03;20.80;;;8.80;71.70;;;;;;8307194;28;20113;-67
2021/04/08 12:29:20;;;;;;;62.35;21.23;;;9.00;69.90;;;;;;8311549;28;20056;-67
2021/04/08 12:33:21;;;;;;;74.40;24.33;;;9.80;63.80;;;;;;8304897;28;20057;-67
2021/04/08 12:37:22;;;;;;;71.78;21.83;;;14.10;55.30;;;;;;8309021;28;20056;-67
2021/04/08 12:41:22;;;;;;;92.75;87.57;;;17.60;43.60;;;;;;8306748;28;20408;-67
2021/04/08 12:45:23;;;;;;;77.35;23.88;;;19.40;38.70;;;;;;8308671;28;20030;-66
2021/04/08 12:49:24;;;;;;;75.82;23.13;;;20.20;36.40;;;;;;8310311;28;20033;-66
2021/04/08 12:53:25;;;;;;;78.35;23.38;;;20.70;36.30;;;;;;8310006;28;20025;-66
2021/04/08 12:57:26;;;;;;;79.25;23.80;;;20.50;34.70;;;;;;8309629;28;20041;-65
2021/04/08 13:01:27;;;;;;;50.17;14.32;;;21.10;33.50;;;;;;8312649;28;20029;-67
2021/04/08 13:05:28;;;;;;;76.80;23.40;;;20.00;34.30;;;;;;8313831;28;20395;-67
2021/04/08 13:09:28;;;;;;;57.13;20.65;;;22.70;32.80;;;;;;8312160;28;20022;-66
2021/04/08 13:13:29;;;;;;;58.90;20.98;;;20.70;31.40;;;;;;8307846;28;20076;-66
2021/04/08 13:17:30;;;;;;;60.00;21.45;;;20.70;32.40;;;;;;8313679;28;20025;-66
2021/04/08 13:21:30;;;;;;;56.92;20.50;;;17.70;36.90;;;;;;8313365;28;20111;-67
2021/04/08 13:25:32;;;;;;;60.63;21.10;;;18.30;37.80;;;;;;8313166;28;20033;-66
2021/04/08 13:29:35;;;;;;;59.10;21.20;;;18.50;36.00;;;;;;8312184;28;20061;-67
2021/04/08 13:33:35;;;;;;;63.28;21.60;;;18.50;36.10;;;;;;8310552;28;20037;-66
2021/04/08 13:37:38;;;;;;;64.03;21.92;;;18.20;35.60;;;;;;8311649;28;20523;-66
2021/04/08 13:41:38;;;;;;;65.97;22.08;;;18.70;34.20;;;;;;8310948;28;20045;-66
2021/04/08 13:45:39;;;;;;;65.40;21.50;;;17.60;37.00;;;;;;8296752;28;20044;-66
2021/04/08 13:49:40;;;;;;;64.45;21.40;;;16.30;39.00;;;;;;8301997;28;20397;-66
2021/04/08 13:53:40;;;;;;;61.63;21.20;;;16.60;38.70;;;;;;8294519;28;20045;-66
2021/04/08 13:57:41;;;;;;;62.72;21.27;;;15.30;40.70;;;;;;8296302;28;20451;-66
2021/04/08 14:01:42;;;;;;;66.55;21.85;;;17.80;37.70;;;;;;8302389;28;20018;-68
2021/04/08 14:05:42;;;;;;;66.32;22.05;;;18.80;36.40;;;;;;8308502;28;20041;-67
2021/04/08 14:09:43;;;;;;;66.70;22.50;;;20.50;33.80;;;;;;8316141;28;20068;-67
2021/04/08 14:13:44;;;;;;;67.13;22.20;;;19.40;35.00;;;;;;8324336;28;20033;-67
2021/04/08 14:17:44;;;;;;;71.65;22.75;;;21.80;32.40;;;;;;8310186;28;20026;-67
2021/04/08 14:21:46;;;;;;;68.32;22.20;;;22.80;30.00;;;;;;8309049;28;20441;-71
2021/04/08 14:25:47;;;;;;;73.47;22.77;;;20.90;33.40;;;;;;8315407;28;20032;-72
2021/04/08 14:29:48;;;;;;;72.05;22.50;;;21.60;32.90;;;;;;8328282;28;20369;-71
2021/04/08 14:33:48;;;;;;;65.45;21.52;;;19.20;32.90;;;;;;8297822;28;20038;-72
2021/04/08 14:37:49;;;;;;;66.30;21.60;;;15.20;39.00;;;;;;8326938;28;20037;-71
2021/04/08 14:41:50;;;;;;;72.72;22.45;;;15.40;40.50;;;;;;8328067;28;20028;-71
2021/04/08 14:45:51;;;;;;;74.47;22.55;;;19.60;35.30;;;;;;8311315;28;20334;-73
2021/04/08 14:49:51;;;;;;;86.10;25.48;;;20.90;32.40;;;;;;8320014;28;20061;-72
2021/04/08 14:53:53;;;;;;;86.93;24.83;;;21.60;31.50;;;;;;8300429;28;20100;-72
2021/04/08 14:57:54;;;;;;;86.50;24.40;;;21.30;31.40;;;;;;8315344;28;20061;-72
2021/04/08 15:01:54;;;;;;;94.63;25.70;;;20.60;31.90;;;;;;8307800;28;20042;-72
2021/04/08 15:05:55;;;;;;;95.68;25.13;;;21.40;31.30;;;;;;8322605;28;20033;-71
2021/04/08 15:09:55;;;;;;;27.33;25.80;;;21.10;32.60;;;;;;8326204;28;20065;-72
2021/04/08 15:13:56;;;;;;;32.25;30.48;;;22.10;30.60;;;;;;8326950;28;20029;-72
2021/04/08 15:17:56;;;;;;;19.75;18.33;;;21.90;30.30;;;;;;8327332;28;20029;-72
2021/04/08 15:21:58;;;;;;;13.38;12.35;;;19.20;34.10;;;;;;8324176;28;20098;-71
2021/04/08 15:25:59;;;;;;;7.88;7.30;;;17.50;34.60;;;;;;8316089;28;20561;-74
2021/04/08 15:29:59;;;;;;;22.80;8.20;;;17.10;36.70;;;;;;8323949;28;20044;-70
2021/04/08 15:34:00;;;;;;;13.52;12.20;;;16.70;37.50;;;;;;8306441;28;20029;-72
2021/04/08 15:38:01;;;;;;;15.35;14.23;;;17.20;37.40;;;;;;8327981;28;20024;-74
2021/04/08 15:42:01;;;;;;;68.55;64.88;;;17.40;38.30;;;;;;8348935;28;20029;-73
2021/04/08 15:46:02;;;;;;;84.70;80.13;;;17.50;36.70;;;;;;8356838;28;20111;-73
2021/04/08 15:50:03;;;;;;;50.92;48.20;;;18.90;35.70;;;;;;8327086;28;20519;-72
2021/04/08 15:54:04;;;;;;;38.03;36.00;;;19.20;36.20;;;;;;8291648;28;20021;-71
2021/04/08 15:58:06;;;;;;;37.05;35.00;;;18.70;34.20;;;;;;8298071;28;20072;-72
2021/04/08 16:02:07;;;;;;;27.60;16.23;;;18.30;35.30;;;;;;8307961;28;20028;-73
2021/04/08 16:06:09;;;;;;;40.92;38.72;;;17.40;36.30;;;;;;8309792;28;20056;-72
2021/04/08 16:10:10;;;;;;;69.40;65.72;;;18.30;35.10;;;;;;8307433;28;20392;-73
2021/04/08 16:14:10;;;;;;;60.58;57.38;;;19.00;34.90;;;;;;8342266;28;20031;-71
2021/04/08 16:18:11;;;;;;;51.03;48.28;;;20.10;33.20;;;;;;8357623;28;20040;-72
2021/04/08 16:22:12;;;;;;;92.07;86.95;;;19.40;34.40;;;;;;8336490;28;20504;-71
2021/04/08 16:26:12;;;;;;;64.47;61.10;;;18.50;34.80;;;;;;8330093;28;20029;-70
2021/04/08 16:30:13;;;;;;;25.10;23.67;;;18.60;35.80;;;;;;8328962;28;20392;-70
2021/04/08 16:34:14;;;;;;;38.13;36.13;;;18.30;34.70;;;;;;8331326;28;20032;-70
2021/04/08 16:38:15;;;;;;;81.13;76.75;;;18.10;35.00;;;;;;8331592;28;20029;-71
2021/04/08 16:42:16;;;;;;;81.53;77.15;;;18.50;34.50;;;;;;8330270;28;20400;-71
2021/04/08 16:46:17;;;;;;;110.75;104.75;;;19.10;34.20;;;;;;8331869;28;20086;-70
2021/04/08 16:50:17;;;;;;;45.45;43.08;;;20.30;32.60;;;;;;8311989;28;20049;-71
2021/04/08 16:54:18;;;;;;;23.50;22.13;;;19.90;32.70;;;;;;8299289;28;20042;-71
2021/04/08 16:58:18;;;;;;;24.38;23.02;;;20.10;33.00;;;;;;8321574;28;20045;-71
2021/04/08 17:02:19;;;;;;;98.57;93.22;;;19.40;35.20;;;;;;8300406;28;20087;-71
2021/04/08 17:06:20;;;;;;;141.38;133.70;;;18.20;35.20;;;;;;8298032;28;20049;-72
2021/04/08 17:10:20;;;;;;;134.55;127.15;;;15.60;40.60;;;;;;8300298;28;20040;-70
2021/04/08 17:14:21;;;;;;;77.63;34.28;;;14.00;43.80;;;;;;8298141;28;20093;-69
2021/04/08 17:18:22;;;;;;;96.25;28.23;;;12.00;47.10;;;;;;8300960;28;20042;-71
2021/04/08 17:22:22;;;;;;;85.60;26.02;;;10.80;48.70;;;;;;8314171;28;20477;-71
2021/04/08 17:26:23;;;;;;;80.35;24.00;;;9.80;52.00;;;;;;8312889;28;20481;-71
2021/04/08 17:30:25;;;;;;;81.53;24.40;;;9.20;54.70;;;;;;8311615;28;20029;-70
2021/04/08 17:34:26;;;;;;;85.40;27.73;;;8.70;56.10;;;;;;8305309;28;20033;-67
2021/04/08 17:38:27;;;;;;;82.72;24.80;;;8.30;57.70;;;;;;8311206;28;20042;-68
2021/04/08 17:42:27;;;;;;;83.20;24.85;;;7.90;58.50;;;;;;8322027;28;20052;-71
2021/04/08 17:46:28;;;;;;;83.07;25.15;;;7.70;59.60;;;;;;8317959;28;20026;-71
2021/04/08 17:50:29;;;;;;;82.75;25.38;;;7.50;60.00;;;;;;8305832;28;20125;-70
2021/04/08 17:54:29;;;;;;;80.72;24.80;;;7.30;61.30;;;;;;8310774;28;20065;-68
2021/04/08 17:58:30;;;;;;;80.55;24.58;;;6.90;63.00;;;;;;8310686;28;20030;-71
2021/04/08 18:02:30;;;;;;;80.95;24.00;;;6.60;65.70;;;;;;8312718;28;20021;-69
2021/04/08 18:06:31;;;;;;;80.45;24.70;;;6.30;67.50;;;;;;8305602;28;20037;-69
2021/04/08 18:10:32;;;;;;;80.57;24.33;;;6.00;69.40;;;;;;8311352;28;20198;-71
2021/04/08 18:14:33;;;;;;;81.57;25.88;;;5.90;70.70;;;;;;8313120;28;20043;-70
2021/04/08 18:18:34;;;;;;;80.95;24.80;;;5.60;72.30;;;;;;8299325;28;20029;-72
2021/04/08 18:22:34;;;;;;;79.47;24.38;;;5.50;75.00;;;;;;8304331;28;20052;-71
2021/04/08 18:26:35;;;;;;;78.22;24.48;;;5.40;77.60;;;;;;8321453;28;20560;-71
2021/04/08 18:30:37;;;;;;;75.63;23.60;;;5.40;77.80;;;;;;8340078;28;20088;-70
2021/04/08 18:34:37;;;;;;;72.32;22.67;;;5.40;77.50;;;;;;8340048;28;20690;-70
2021/04/08 18:38:38;;;;;;;72.72;22.95;;;5.40;77.60;;;;;;8343829;28;20033;-70
2021/04/08 18:42:39;;;;;;;73.68;23.60;;;5.30;79.20;;;;;;8345641;28;20032;-71
2021/04/08 18:46:40;;;;;;;71.55;22.70;;;5.10;80.80;;;;;;8337371;28;20231;-70
2021/04/08 18:50:41;;;;;;;70.20;22.27;;;4.90;84.00;;;;;;8331664;28;20500;-71
2021/04/08 18:54:42;;;;;;;70.55;22.05;;;4.70;86.90;;;;;;8349728;28;20037;-71
2021/04/08 18:58:43;;;;;;;71.25;22.08;;;4.60;89.60;;;;;;8344126;28;20045;-70
2021/04/08 19:02:44;;;;;;;70.65;22.42;;;4.40;91.90;;;;;;8347268;28;20025;-70
2021/04/08 19:06:45;;;;;;;71.57;22.27;;;4.30;94.50;;;;;;8347279;28;20039;-70
2021/04/08 19:10:46;;;;;;;71.97;22.20;;;4.10;95.50;;;;;;8346366;28;20399;-71
2021/04/08 19:14:47;;;;;;;72.65;22.40;;;4.10;96.20;;;;;;8354503;28;20502;-71
2021/04/08 19:18:48;;;;;;;74.07;22.75;;;3.70;97.80;;;;;;8355053;28;20128;-71
2021/04/08 19:22:49;;;;;;;74.57;23.05;;;3.40;99.90;;;;;;8339786;28;20025;-72
2021/04/08 19:26:49;;;;;;;75.53;22.98;;;3.20;99.90;;;;;;8345949;28;20112;-71
2021/04/08 19:30:50;;;;;;;75.60;22.98;;;3.10;99.90;;;;;;8342611;28;20852;-71
2021/04/08 19:34:51;;;;;;;75.85;23.15;;;3.00;99.90;;;;;;8344798;28;20580;-70
2021/04/08 19:38:52;;;;;;;75.55;23.13;;;2.80;99.90;;;;;;8313123;28;20162;-69
2021/04/08 19:42:53;;;;;;;75.97;22.90;;;2.70;99.90;;;;;;8300770;28;20026;-72
2021/04/08 19:46:53;;;;;;;76.28;22.95;;;2.60;99.90;;;;;;8301814;28;20034;-70
2021/04/08 19:50:54;;;;;;;76.43;22.75;;;2.50;99.90;;;;;;8305961;28;20133;-70
2021/04/08 19:54:55;;;;;;;77.93;23.15;;;2.20;99.90;;;;;;8307486;28;20464;-70
2021/04/08 19:58:55;;;;;;;77.47;23.05;;;2.10;99.90;;;;;;8303976;28;20034;-72
2021/04/08 20:02:56;;;;;;;76.82;22.55;;;2.30;99.90;;;;;;8301744;28;20056;-69
2021/04/08 20:06:56;;;;;;;78.47;23.05;;;2.00;99.90;;;;;;8304203;28;20065;-70
2021/04/08 20:10:57;;;;;;;79.30;23.00;;;2.00;99.90;;;;;;8310550;28;20033;-71
2021/04/08 20:14:58;;;;;;;79.72;22.58;;;2.10;99.90;;;;;;8321407;28;20049;-70
2021/04/08 20:18:58;;;;;;;81.22;23.40;;;1.90;99.90;;;;;;8323162;28;20045;-70
2021/04/08 20:22:59;;;;;;;81.30;23.05;;;1.60;99.90;;;;;;8309887;28;20108;-70
2021/04/08 20:27:00;;;;;;;82.38;23.35;;;2.00;99.90;;;;;;8308191;28;20021;-70
2021/04/08 20:31:02;;;;;;;81.65;22.83;;;1.90;99.90;;;;;;8305305;28;20510;-70
2021/04/08 20:35:03;;;;;;;82.25;22.67;;;1.50;99.90;;;;;;8298077;28;20034;-70
2021/04/08 20:39:04;;;;;;;82.25;22.58;;;1.20;99.90;;;;;;8311813;28;20071;-70
2021/04/08 20:43:05;;;;;;;83.68;22.95;;;1.10;99.90;;;;;;8316584;28;20508;-70